Time;durP1;ratioP1;P1;durP2;ratioP2;P2;SDS_P1;SDS_P2;PMS_P1;PMS_P2;Temp;Humidity;BMP_temperature;BMP_pressure;BME280_temperature;BME280_humidity;BME280_pressure;Samples;Min_cycle;Max_cycle;Signal;HPM_P1;HPM_P2
2022/06/30 00:00:29;;;;;;;4.07;3.78;;;24.10;61.10;;;;;;5008866;28;20045;-61
2022/06/30 00:02:55;;;;;;;3.55;3.25;;;24.00;61.10;;;;;;5010752;28;20037;-62
2022/06/30 00:05:21;;;;;;;3.55;3.30;;;24.00;61.00;;;;;;5010639;28;20379;-61
2022/06/30 00:07:46;;;;;;;4.00;3.70;;;24.10;61.00;;;;;;5009446;28;20041;-62
2022/06/30 00:10:12;;;;;;;4.10;3.80;;;24.00;60.90;;;;;;5012490;28;20034;-61
2022/06/30 00:12:39;;;;;;;3.90;3.60;;;24.00;60.90;;;;;;5011635;28;20053;-62
2022/06/30 00:15:05;;;;;;;3.90;3.60;;;24.00;60.90;;;;;;5013087;28;20069;-61
2022/06/30 00:17:31;;;;;;;3.58;3.38;;;24.00;60.90;;;;;;5013371;28;20444;-61
2022/06/30 00:19:56;;;;;;;3.80;3.50;;;24.00;60.90;;;;;;5014026;28;20041;-61
2022/06/30 00:22:22;;;;;;;3.65;3.45;;;24.00;60.90;;;;;;5011876;28;20037;-62
2022/06/30 00:24:47;;;;;;;3.78;3.47;;;24.00;60.80;;;;;;5014339;28;20041;-61
2022/06/30 00:27:13;;;;;;;3.90;3.70;;;24.00;60.90;;;;;;5014331;28;20402;-61
2022/06/30 00:29:39;;;;;;;3.92;3.63;;;24.00;60.90;;;;;;5008445;28;20494;-62
2022/06/30 00:32:05;;;;;;;3.90;3.60;;;24.00;60.90;;;;;;5017289;28;20033;-61
2022/06/30 00:34:31;;;;;;;3.95;3.65;;;24.00;60.70;;;;;;5014044;28;20054;-65
2022/06/30 00:36:56;;;;;;;3.92;3.53;;;24.00;60.70;;;;;;5010681;28;20045;-61
2022/06/30 00:39:22;;;;;;;3.70;3.40;;;24.00;60.70;;;;;;5012622;28;20033;-61
2022/06/30 00:41:48;;;;;;;4.20;3.90;;;24.00;60.70;;;;;;5007884;28;20125;-62
2022/06/30 00:44:14;;;;;;;4.03;3.72;;;24.00;60.70;;;;;;5011816;28;20041;-61
2022/06/30 00:46:40;;;;;;;3.63;3.42;;;24.00;60.70;;;;;;5011544;28;20538;-61
2022/06/30 00:49:08;;;;;;;3.80;3.53;;;24.00;60.70;;;;;;5011823;28;20120;-61
2022/06/30 00:51:34;;;;;;;4.93;3.80;;;24.00;60.70;;;;;;5010508;28;20092;-61
2022/06/30 00:54:03;;;;;;;4.47;3.50;;;24.00;60.70;;;;;;5008866;28;20721;-61
2022/06/30 00:56:30;;;;;;;3.70;3.42;;;24.00;60.70;;;;;;5007271;28;20049;-61
2022/06/30 00:59:01;;;;;;;3.72;3.53;;;24.00;60.70;;;;;;5011618;28;20045;-61
2022/06/30 01:01:27;;;;;;;3.53;3.33;;;24.00;60.60;;;;;;5007829;28;20111;-62
2022/06/30 01:03:55;;;;;;;4.38;3.20;;;24.00;60.60;;;;;;5009924;28;20069;-62
2022/06/30 01:06:22;;;;;;;4.22;3.67;;;24.00;60.60;;;;;;5011261;28;20053;-61
2022/06/30 01:08:49;;;;;;;3.70;3.40;;;24.00;60.60;;;;;;5009551;28;20049;-62
2022/06/30 01:14:03;;;;;;;5.68;3.40;;;24.00;60.60;;;;;;5011983;28;20046;-62
2022/06/30 01:16:29;;;;;;;3.25;2.95;;;24.00;60.60;;;;;;5008539;28;20537;-62
2022/06/30 01:18:55;;;;;;;3.88;3.58;;;24.00;60.50;;;;;;5009010;28;20042;-62
2022/06/30 01:21:21;;;;;;;3.70;3.40;;;24.00;60.50;;;;;;5011738;28;20600;-63
2022/06/30 01:23:47;;;;;;;3.78;3.47;;;24.00;60.50;;;;;;5012441;28;20049;-62
2022/06/30 01:26:13;;;;;;;3.35;3.10;;;24.00;60.50;;;;;;5010705;28;20115;-62
2022/06/30 01:28:38;;;;;;;3.53;3.33;;;24.00;60.50;;;;;;5011470;28;20060;-61
2022/06/30 01:31:04;;;;;;;3.70;3.40;;;24.00;60.50;;;;;;5009207;28;20034;-62
2022/06/30 01:33:30;;;;;;;4.05;3.10;;;24.00;60.50;;;;;;5009721;28;20037;-63
2022/06/30 01:35:56;;;;;;;3.60;3.30;;;24.00;60.50;;;;;;5011076;28;20037;-62
2022/06/30 01:38:23;;;;;;;3.47;3.28;;;24.00;60.40;;;;;;5010531;28;20084;-61
2022/06/30 01:40:49;;;;;;;3.70;3.40;;;24.00;60.40;;;;;;5009628;28;20052;-61
2022/06/30 01:43:15;;;;;;;3.50;3.30;;;23.90;61.10;;;;;;5011548;28;20034;-61
2022/06/30 01:45:42;;;;;;;3.55;3.25;;;24.00;60.40;;;;;;5009168;28;20121;-62
2022/06/30 01:48:08;;;;;;;3.58;3.22;;;24.00;60.40;;;;;;5012663;28;20081;-61
2022/06/30 01:50:34;;;;;;;3.03;2.83;;;23.90;60.40;;;;;;5009720;28;20033;-61
2022/06/30 01:53:01;;;;;;;3.40;3.20;;;24.00;60.40;;;;;;5011184;28;20384;-61
2022/06/30 01:55:28;;;;;;;3.47;3.17;;;24.00;60.40;;;;;;5008790;28;20156;-62
2022/06/30 01:57:54;;;;;;;3.25;3.05;;;23.90;60.30;;;;;;5011875;28;20478;-61
2022/06/30 02:00:21;;;;;;;3.13;2.90;;;24.00;60.30;;;;;;5008816;28;20385;-62
2022/06/30 02:02:50;;;;;;;3.42;3.13;;;24.00;60.30;;;;;;5009167;28;20049;-61
2022/06/30 02:05:17;;;;;;;3.70;3.40;;;24.00;60.30;;;;;;5009802;28;20091;-62
2022/06/30 02:07:43;;;;;;;3.00;2.80;;;23.90;60.30;;;;;;5007178;28;20128;-61
2022/06/30 02:10:11;;;;;;;3.20;3.00;;;24.00;60.30;;;;;;5010108;28;20033;-63
2022/06/30 02:12:47;;;;;;;3.20;3.00;;;24.00;60.30;;;;;;5007792;28;20046;-62
2022/06/30 02:15:20;;;;;;;3.20;3.00;;;23.90;60.20;;;;;;5008989;28;20042;-62
2022/06/30 02:17:48;;;;;;;3.60;3.30;;;23.90;60.20;;;;;;5012352;28;20069;-61
2022/06/30 02:20:13;;;;;;;3.08;2.88;;;23.90;60.20;;;;;;5009786;28;20034;-62
2022/06/30 02:22:41;;;;;;;2.90;2.70;;;23.90;60.20;;;;;;5009547;28;20061;-62
2022/06/30 02:25:08;;;;;;;3.40;3.10;;;23.90;60.30;;;;;;5008415;28;20045;-62
2022/06/30 02:27:34;;;;;;;3.10;2.90;;;23.90;60.20;;;;;;5010887;28;20111;-61
2022/06/30 02:29:59;;;;;;;3.30;3.10;;;23.90;60.20;;;;;;5011433;28;20037;-61
2022/06/30 02:32:25;;;;;;;3.60;3.13;;;23.90;60.20;;;;;;5007951;28;20098;-61
2022/06/30 02:34:52;;;;;;;3.28;3.08;;;23.90;60.10;;;;;;5010612;28;20044;-61
2022/06/30 02:37:18;;;;;;;3.50;3.20;;;23.90;60.10;;;;;;5007532;28;20091;-62
2022/06/30 02:39:44;;;;;;;3.53;3.22;;;23.90;60.10;;;;;;5009953;28;20041;-61
2022/06/30 02:42:10;;;;;;;3.20;2.95;;;23.90;60.10;;;;;;5008117;28;20049;-61
2022/06/30 02:44:36;;;;;;;3.45;3.20;;;23.90;60.10;;;;;;5008842;28;20038;-62
2022/06/30 02:47:03;;;;;;;3.15;2.60;;;23.90;60.10;;;;;;5008852;28;20533;-60
2022/06/30 02:49:29;;;;;;;3.20;3.00;;;23.90;60.10;;;;;;5008818;28;20084;-63
2022/06/30 02:51:54;;;;;;;3.10;2.90;;;23.90;60.10;;;;;;5011073;28;20265;-61
2022/06/30 02:54:20;;;;;;;3.42;3.13;;;23.90;60.10;;;;;;5010393;28;20130;-61
2022/06/30 02:56:47;;;;;;;3.25;2.95;;;23.90;60.10;;;;;;5009909;28;20045;-61
2022/06/30 02:59:13;;;;;;;2.72;2.53;;;23.90;60.20;;;;;;5007657;28;20068;-61
2022/06/30 03:01:39;;;;;;;3.10;2.90;;;23.90;60.10;;;;;;5009200;28;20046;-61
2022/06/30 03:04:05;;;;;;;3.15;2.85;;;23.90;60.00;;;;;;5008400;28;20048;-61
2022/06/30 03:06:32;;;;;;;2.97;2.78;;;23.90;60.70;;;;;;4990934;28;20128;-61
2022/06/30 03:08:58;;;;;;;3.08;2.88;;;23.90;60.00;;;;;;5009257;28;20053;-62
2022/06/30 03:11:24;;;;;;;3.13;2.90;;;23.90;60.00;;;;;;5012892;28;20485;-61
2022/06/30 03:13:50;;;;;;;3.35;3.00;;;23.90;60.00;;;;;;5010077;28;20034;-61
2022/06/30 03:16:17;;;;;;;2.80;2.40;;;23.90;60.00;;;;;;5006072;28;20686;-61
2022/06/30 03:18:43;;;;;;;2.92;2.72;;;23.90;60.00;;;;;;5005516;28;20037;-63
2022/06/30 03:21:10;;;;;;;2.92;2.72;;;23.90;60.00;;;;;;5002220;28;20046;-61
2022/06/30 03:23:36;;;;;;;3.33;3.03;;;23.90;60.00;;;;;;5004157;28;20411;-62
2022/06/30 03:26:02;;;;;;;2.88;2.67;;;23.90;60.00;;;;;;5009913;28;20129;-61
2022/06/30 03:28:28;;;;;;;2.70;2.50;;;23.90;60.00;;;;;;5009993;28;20054;-62
2022/06/30 03:30:54;;;;;;;3.20;3.00;;;23.90;60.00;;;;;;5013612;28;20044;-61
2022/06/30 03:33:20;;;;;;;2.90;2.70;;;23.90;60.00;;;;;;5015541;28;20029;-62
2022/06/30 03:35:46;;;;;;;2.97;2.63;;;23.90;60.00;;;;;;5014691;28;20046;-62
2022/06/30 03:38:12;;;;;;;3.15;2.83;;;23.90;59.90;;;;;;5012959;28;20091;-61
2022/06/30 03:40:38;;;;;;;2.92;2.70;;;23.90;59.90;;;;;;5011049;28;20042;-64
2022/06/30 03:43:04;;;;;;;3.03;2.83;;;23.90;59.90;;;;;;5011613;28;20087;-62
2022/06/30 03:45:30;;;;;;;3.13;2.63;;;23.90;59.90;;;;;;5011210;28;20074;-62
2022/06/30 03:47:59;;;;;;;3.03;2.75;;;23.90;59.80;;;;;;5012957;28;20049;-62
2022/06/30 03:50:25;;;;;;;3.05;2.85;;;23.90;59.80;;;;;;5013614;28;20049;-61
2022/06/30 03:52:51;;;;;;;2.58;2.45;;;23.90;59.80;;;;;;5024637;28;20034;-63
2022/06/30 03:55:17;;;;;;;3.55;2.90;;;23.90;59.80;;;;;;5014790;28;20034;-61
2022/06/30 03:57:43;;;;;;;2.70;2.50;;;23.80;59.70;;;;;;5011787;28;20095;-62
2022/06/30 04:00:09;;;;;;;3.10;2.80;;;23.80;59.80;;;;;;5011968;28;20052;-62
2022/06/30 04:02:35;;;;;;;2.70;2.50;;;23.90;59.90;;;;;;5013118;28;20045;-61
2022/06/30 04:05:00;;;;;;;2.60;2.50;;;23.80;59.80;;;;;;5010170;28;20044;-62
2022/06/30 04:07:26;;;;;;;3.03;2.60;;;23.90;59.90;;;;;;5009553;28;20066;-62
2022/06/30 04:09:52;;;;;;;2.80;2.60;;;23.90;59.90;;;;;;5013658;28;20074;-60
2022/06/30 04:12:17;;;;;;;2.53;2.33;;;23.80;59.70;;;;;;5011914;28;20388;-60
2022/06/30 04:14:43;;;;;;;2.78;2.65;;;23.80;59.80;;;;;;5009240;28;20136;-61
2022/06/30 04:17:09;;;;;;;2.80;2.60;;;23.80;59.70;;;;;;5012639;28;20125;-61
2022/06/30 04:19:35;;;;;;;2.70;2.50;;;23.80;59.80;;;;;;5010114;28;20430;-61
2022/06/30 04:22:01;;;;;;;3.20;2.90;;;23.80;59.80;;;;;;5012650;28;20045;-60
2022/06/30 04:24:26;;;;;;;2.90;2.33;;;23.90;59.80;;;;;;5011807;28;20100;-61
2022/06/30 04:26:52;;;;;;;3.08;2.88;;;23.80;59.70;;;;;;5013833;28;20041;-62
2022/06/30 04:29:18;;;;;;;2.85;2.65;;;23.80;59.70;;;;;;5013760;28;20040;-61
2022/06/30 04:34:28;;;;;;;2.90;2.70;;;23.90;59.80;;;;;;5011790;28;20405;-61
2022/06/30 04:36:53;;;;;;;3.58;2.90;;;23.80;59.80;;;;;;5008457;28;20042;-63
2022/06/30 04:39:21;;;;;;;5.88;2.90;;;23.80;59.80;;;;;;5013661;28;20049;-63
2022/06/30 04:41:46;;;;;;;3.70;3.30;;;23.80;59.60;;;;;;5009082;28;20053;-62
2022/06/30 04:44:12;;;;;;;3.42;2.90;;;23.90;59.70;;;;;;5009298;28;20491;-63
2022/06/30 04:46:37;;;;;;;3.22;2.90;;;23.90;59.50;;;;;;5010946;28;20057;-63
2022/06/30 04:49:03;;;;;;;3.00;2.80;;;23.80;59.30;;;;;;5006990;28;20422;-62
2022/06/30 04:51:29;;;;;;;3.97;3.13;;;23.80;59.30;;;;;;5009165;28;20493;-63
2022/06/30 04:53:54;;;;;;;3.05;2.85;;;23.90;59.50;;;;;;5012510;28;20033;-62
2022/06/30 04:56:20;;;;;;;6.25;3.05;;;23.80;59.50;;;;;;5010548;28;20033;-62
2022/06/30 04:58:46;;;;;;;2.85;2.65;;;23.90;60.40;;;;;;5010021;28;20046;-62
2022/06/30 05:01:12;;;;;;;6.57;3.15;;;23.90;59.80;;;;;;5007467;28;20049;-63
2022/06/30 05:03:38;;;;;;;4.22;3.00;;;23.90;59.70;;;;;;5011304;28;20038;-62
2022/06/30 05:06:05;;;;;;;3.28;2.88;;;23.90;59.80;;;;;;5013906;28;20048;-62
2022/06/30 05:08:32;;;;;;;2.90;2.70;;;23.90;59.90;;;;;;5012549;28;20046;-62
2022/06/30 05:10:58;;;;;;;4.50;3.00;;;23.90;59.80;;;;;;5009929;28;20410;-62
2022/06/30 05:13:24;;;;;;;3.15;2.85;;;23.90;59.90;;;;;;4991519;28;20473;-63
2022/06/30 05:15:49;;;;;;;3.05;2.85;;;23.90;60.00;;;;;;5010985;28;20042;-62
2022/06/30 05:18:15;;;;;;;3.70;3.25;;;23.90;60.00;;;;;;5007967;28;20045;-62
2022/06/30 05:20:42;;;;;;;3.05;2.85;;;23.90;60.10;;;;;;5008562;28;20740;-62
2022/06/30 05:23:08;;;;;;;5.25;2.90;;;23.90;60.00;;;;;;5009563;28;20227;-63
2022/06/30 05:28:21;;;;;;;3.22;2.88;;;23.90;60.20;;;;;;5011203;28;20049;-63
2022/06/30 05:30:48;;;;;;;4.53;3.08;;;23.90;60.10;;;;;;5011137;28;20152;-62
2022/06/30 05:33:13;;;;;;;3.10;2.80;;;23.90;60.10;;;;;;4995600;28;20852;-62
2022/06/30 05:35:40;;;;;;;3.83;3.10;;;23.90;60.00;;;;;;5011432;28;20041;-62
2022/06/30 05:38:06;;;;;;;3.13;2.92;;;23.90;60.10;;;;;;5011970;28;20041;-62
2022/06/30 05:40:31;;;;;;;3.53;3.10;;;23.90;60.10;;;;;;5011937;28;20092;-62
2022/06/30 05:42:57;;;;;;;4.03;3.05;;;23.90;60.00;;;;;;5010124;28;20041;-62
2022/06/30 05:45:23;;;;;;;3.40;3.08;;;23.90;60.00;;;;;;5011434;28;20038;-63
2022/06/30 05:47:51;;;;;;;3.58;2.90;;;23.90;60.10;;;;;;5012852;28;20107;-62
2022/06/30 05:50:18;;;;;;;5.13;2.80;;;23.90;60.20;;;;;;5010101;28;20050;-62
2022/06/30 05:52:45;;;;;;;5.40;3.03;;;23.90;60.20;;;;;;5010579;28;20041;-61
2022/06/30 05:55:11;;;;;;;4.30;2.90;;;23.90;60.30;;;;;;5010788;28;20038;-61
2022/06/30 05:57:50;;;;;;;4.75;2.97;;;23.90;60.30;;;;;;5009398;28;20103;-61
2022/06/30 06:00:18;;;;;;;3.13;2.85;;;24.00;60.40;;;;;;5011270;28;20045;-61
2022/06/30 06:02:44;;;;;;;5.00;3.00;;;23.90;60.40;;;;;;5009325;28;20042;-60
2022/06/30 06:05:09;;;;;;;5.00;3.25;;;23.90;60.50;;;;;;5007338;28;20053;-61
2022/06/30 06:07:36;;;;;;;3.40;3.05;;;23.90;60.70;;;;;;5010391;28;20041;-60
2022/06/30 06:10:02;;;;;;;4.63;3.20;;;23.90;60.80;;;;;;5011304;28;20512;-60
2022/06/30 06:12:27;;;;;;;4.30;2.97;;;24.00;61.00;;;;;;5024477;28;20096;-61
2022/06/30 06:14:54;;;;;;;3.45;2.78;;;23.90;60.90;;;;;;5011986;28;20033;-62
2022/06/30 06:17:20;;;;;;;3.65;2.70;;;24.00;61.00;;;;;;5011917;28;20560;-61
2022/06/30 06:19:45;;;;;;;3.83;3.15;;;23.90;60.90;;;;;;5011524;28;20116;-61
2022/06/30 06:22:11;;;;;;;4.90;3.10;;;23.90;61.00;;;;;;5011942;28;20041;-60
2022/06/30 06:24:37;;;;;;;4.63;3.28;;;24.00;61.10;;;;;;5009613;28;20160;-60
2022/06/30 06:27:02;;;;;;;3.33;3.03;;;24.00;61.10;;;;;;5011007;28;20430;-60
2022/06/30 06:29:29;;;;;;;3.72;3.10;;;24.00;61.10;;;;;;5009615;28;20053;-60
2022/06/30 06:31:55;;;;;;;3.30;3.00;;;23.90;61.00;;;;;;5007622;28;20038;-61
2022/06/30 06:34:21;;;;;;;3.30;3.10;;;24.00;61.10;;;;;;5007993;28;20667;-60
2022/06/30 06:36:46;;;;;;;3.83;3.50;;;24.00;61.10;;;;;;5007363;28;20049;-61
2022/06/30 06:39:12;;;;;;;4.05;3.67;;;24.00;61.10;;;;;;5009801;28;20577;-60
2022/06/30 06:41:38;;;;;;;4.63;3.00;;;24.00;61.20;;;;;;5007533;28;20037;-61
2022/06/30 06:44:04;;;;;;;3.75;3.42;;;24.00;61.20;;;;;;5011143;28;20371;-60
2022/06/30 06:46:29;;;;;;;3.85;3.55;;;24.00;61.20;;;;;;5011160;28;20056;-60
2022/06/30 06:49:03;;;;;;;4.15;3.83;;;24.00;61.30;;;;;;5007809;28;20362;-61
2022/06/30 06:51:29;;;;;;;4.68;3.67;;;24.00;61.40;;;;;;5011212;28;20137;-60
2022/06/30 06:53:55;;;;;;;4.50;4.10;;;24.00;61.60;;;;;;5007267;28;20735;-61
2022/06/30 06:56:21;;;;;;;4.00;3.70;;;24.00;61.60;;;;;;5021280;28;20033;-61
2022/06/30 06:58:48;;;;;;;3.63;3.30;;;24.00;61.80;;;;;;5008986;28;20041;-60
2022/06/30 07:01:13;;;;;;;4.32;3.90;;;24.00;61.80;;;;;;5009926;28;20061;-61
2022/06/30 07:03:39;;;;;;;4.03;3.60;;;24.00;61.90;;;;;;5006560;28;20521;-60
2022/06/30 07:06:06;;;;;;;4.10;3.63;;;24.00;62.20;;;;;;5009745;28;20034;-60
2022/06/30 07:08:32;;;;;;;4.38;3.95;;;24.00;62.20;;;;;;5007654;28;20409;-61
2022/06/30 07:10:59;;;;;;;4.22;3.83;;;24.00;62.20;;;;;;5008825;28;20037;-60
2022/06/30 07:13:26;;;;;;;4.78;4.00;;;24.00;62.40;;;;;;5006247;28;20136;-62
2022/06/30 07:15:52;;;;;;;5.18;4.10;;;24.00;62.40;;;;;;5007157;28;20042;-61
2022/06/30 07:18:18;;;;;;;6.32;4.28;;;24.00;62.50;;;;;;5008807;28;20037;-60
2022/06/30 07:20:44;;;;;;;4.75;4.35;;;24.00;62.60;;;;;;5009382;28;20570;-61
2022/06/30 07:23:09;;;;;;;6.35;4.78;;;24.10;62.80;;;;;;5006741;28;20398;-60
2022/06/30 07:25:35;;;;;;;4.60;4.22;;;24.10;63.10;;;;;;5008303;28;20053;-61
2022/06/30 07:28:02;;;;;;;5.50;4.47;;;24.10;63.20;;;;;;5010705;28;20143;-61
2022/06/30 07:30:28;;;;;;;5.95;4.70;;;24.10;63.30;;;;;;5009139;28;20042;-61
2022/06/30 07:32:54;;;;;;;6.18;4.90;;;24.10;63.40;;;;;;5006020;28;20561;-61
2022/06/30 07:35:20;;;;;;;7.43;4.70;;;24.10;63.40;;;;;;5007266;28;20068;-59
2022/06/30 07:37:45;;;;;;;5.30;4.80;;;24.10;63.50;;;;;;5006292;28;20034;-61
2022/06/30 07:40:12;;;;;;;7.68;5.30;;;24.10;63.80;;;;;;5009395;28;20045;-61
2022/06/30 07:42:38;;;;;;;7.32;5.25;;;24.10;63.80;;;;;;5008632;28;20042;-61
2022/06/30 07:45:05;;;;;;;8.15;5.07;;;24.20;63.80;;;;;;5009155;28;20061;-58
2022/06/30 07:47:32;;;;;;;6.20;5.00;;;24.10;63.60;;;;;;4989153;28;20103;-60
2022/06/30 07:49:58;;;;;;;6.00;5.10;;;24.10;63.50;;;;;;5010543;28;20038;-61
2022/06/30 07:52:24;;;;;;;4.88;4.45;;;24.10;63.60;;;;;;5004517;28;20038;-61
2022/06/30 07:54:51;;;;;;;5.75;5.35;;;24.20;63.80;;;;;;5007549;28;20037;-62
2022/06/30 07:57:18;;;;;;;6.72;5.57;;;24.10;63.70;;;;;;5007977;28;20505;-61
2022/06/30 07:59:43;;;;;;;10.20;4.88;;;24.10;63.80;;;;;;5007476;28;20125;-61
2022/06/30 08:02:09;;;;;;;8.63;5.15;;;24.10;64.10;;;;;;5010625;28;20133;-61
2022/06/30 08:04:35;;;;;;;9.18;5.78;;;24.20;64.30;;;;;;4989275;28;20038;-59
2022/06/30 08:07:02;;;;;;;7.53;5.40;;;24.20;64.40;;;;;;5010755;28;20453;-62
2022/06/30 08:09:28;;;;;;;9.05;5.95;;;24.20;64.50;;;;;;5000128;28;20096;-63
2022/06/30 08:11:54;;;;;;;6.53;5.47;;;24.20;64.70;;;;;;5001746;28;20030;-61
2022/06/30 08:14:21;;;;;;;9.88;5.75;;;24.20;64.90;;;;;;5009666;28;20037;-62
2022/06/30 08:16:48;;;;;;;10.90;5.55;;;24.20;65.00;;;;;;5010141;28;20792;-61
2022/06/30 08:19:13;;;;;;;10.00;5.60;;;24.20;65.00;;;;;;5006578;28;20375;-61
2022/06/30 08:21:39;;;;;;;12.20;5.68;;;24.20;65.20;;;;;;5010407;28;20244;-62
2022/06/30 08:24:05;;;;;;;8.52;6.22;;;24.20;65.50;;;;;;5010870;28;20037;-61
2022/06/30 08:26:31;;;;;;;8.57;6.22;;;24.20;65.80;;;;;;5008915;28;20455;-62
2022/06/30 08:28:57;;;;;;;9.98;6.00;;;24.20;66.00;;;;;;5013718;28;20057;-62
2022/06/30 08:31:23;;;;;;;6.20;5.60;;;24.20;65.90;;;;;;5012521;28;20118;-62
2022/06/30 08:33:50;;;;;;;8.82;5.95;;;24.30;66.20;;;;;;5010365;28;20385;-62
2022/06/30 08:36:17;;;;;;;10.13;6.50;;;24.30;66.30;;;;;;5013760;28;20112;-62
2022/06/30 08:38:42;;;;;;;7.47;5.57;;;24.30;66.50;;;;;;5013866;28;20525;-62
2022/06/30 08:43:54;;;;;;;10.75;5.85;;;24.30;66.60;;;;;;5013602;28;20081;-62
2022/06/30 08:46:22;;;;;;;7.32;6.07;;;24.30;66.70;;;;;;5013337;28;20524;-62
2022/06/30 08:48:48;;;;;;;6.65;5.68;;;24.30;66.80;;;;;;5011252;28;20065;-62
2022/06/30 08:51:15;;;;;;;7.03;6.25;;;24.30;66.90;;;;;;5010428;28;20042;-62
2022/06/30 08:53:47;;;;;;;9.13;6.18;;;24.30;67.10;;;;;;5010045;28;20041;-62
2022/06/30 08:56:13;;;;;;;8.88;6.38;;;24.30;67.50;;;;;;5011852;28;20046;-62
2022/06/30 08:58:41;;;;;;;9.02;6.70;;;24.40;67.70;;;;;;5013725;28;20034;-62
2022/06/30 09:01:07;;;;;;;7.68;5.93;;;24.40;68.00;;;;;;5010427;28;20051;-62
2022/06/30 09:03:34;;;;;;;13.80;5.82;;;24.40;68.20;;;;;;5010762;28;20048;-62
2022/06/30 09:06:00;;;;;;;9.32;5.70;;;24.40;68.30;;;;;;5012249;28;20073;-62
2022/06/30 09:08:26;;;;;;;11.43;6.68;;;24.40;68.50;;;;;;5009136;28;20148;-61
2022/06/30 09:10:55;;;;;;;9.25;6.30;;;24.40;68.60;;;;;;5011811;28;20117;-61
2022/06/30 09:13:22;;;;;;;9.38;6.38;;;24.40;68.90;;;;;;5011397;28;20080;-61
2022/06/30 09:15:49;;;;;;;8.40;7.07;;;24.50;69.00;;;;;;5010130;28;20080;-62
2022/06/30 09:18:21;;;;;;;7.55;6.85;;;24.50;69.00;;;;;;5012159;28;20389;-61
2022/06/30 09:20:47;;;;;;;10.93;6.80;;;24.40;69.00;;;;;;5025240;28;20073;-62
2022/06/30 09:23:19;;;;;;;10.52;6.65;;;24.50;69.30;;;;;;5011392;28;20464;-62
2022/06/30 09:25:50;;;;;;;7.13;6.28;;;24.40;69.60;;;;;;5009598;28;20042;-62
2022/06/30 09:28:36;;;;;;;9.43;6.60;;;24.50;69.50;;;;;;5009403;28;20156;-62
2022/06/30 09:31:02;;;;;;;9.50;7.07;;;24.50;69.40;;;;;;5008232;28;20050;-62
2022/06/30 09:33:37;;;;;;;7.47;6.75;;;24.50;69.30;;;;;;5011325;28;20501;-61
2022/06/30 09:36:23;;;;;;;11.90;7.80;;;24.50;69.50;;;;;;5011495;28;20061;-62
2022/06/30 09:39:19;;;;;;;11.32;6.72;;;24.50;69.60;;;;;;5013145;28;20046;-61
2022/06/30 09:41:47;;;;;;;8.30;6.30;;;24.50;69.80;;;;;;4997797;28;20054;-62
2022/06/30 09:44:15;;;;;;;8.35;7.35;;;24.50;69.70;;;;;;5009553;28;20482;-62
2022/06/30 09:46:54;;;;;;;9.25;6.90;;;24.50;69.80;;;;;;5010178;28;20058;-62
2022/06/30 09:49:39;;;;;;;11.65;7.25;;;24.50;70.10;;;;;;5006170;28;20052;-62
2022/06/30 09:52:15;;;;;;;7.75;6.25;;;24.60;70.90;;;;;;5014167;28;20061;-63
2022/06/30 09:54:51;;;;;;;7.30;6.63;;;24.50;70.50;;;;;;5013714;28;20580;-62
2022/06/30 09:57:17;;;;;;;6.88;6.20;;;24.60;70.60;;;;;;5008682;28;20049;-62
2022/06/30 09:59:43;;;;;;;7.30;5.78;;;24.50;70.30;;;;;;5009208;28;20035;-61
2022/06/30 10:02:10;;;;;;;8.43;7.00;;;24.50;70.10;;;;;;5011786;28;20132;-62
2022/06/30 10:04:53;;;;;;;8.95;6.30;;;24.50;70.00;;;;;;5007450;28;20116;-62
2022/06/30 10:07:18;;;;;;;9.80;6.97;;;24.60;70.60;;;;;;5007546;28;20045;-61
2022/06/30 10:09:45;;;;;;;7.47;6.75;;;24.50;69.70;;;;;;5006500;28;20042;-62
2022/06/30 10:12:11;;;;;;;12.93;7.15;;;24.50;69.60;;;;;;5004470;28;20132;-63
2022/06/30 10:14:45;;;;;;;9.13;7.30;;;24.50;69.20;;;;;;5007083;28;20124;-64
2022/06/30 10:17:24;;;;;;;7.35;6.63;;;24.50;69.20;;;;;;5009377;28;20053;-63
2022/06/30 10:20:12;;;;;;;10.13;6.65;;;24.50;69.90;;;;;;4989430;28;20045;-65
2022/06/30 10:22:48;;;;;;;7.07;6.38;;;24.40;69.20;;;;;;5008266;28;20391;-64
2022/06/30 10:25:22;;;;;;;8.32;7.60;;;24.40;69.20;;;;;;5008187;28;20398;-64
2022/06/30 10:27:52;;;;;;;16.92;11.18;;;24.40;69.00;;;;;;5004019;28;20042;-62
2022/06/30 10:30:23;;;;;;;16.90;10.98;;;24.40;69.10;;;;;;5003333;28;20044;-61
2022/06/30 10:33:12;;;;;;;29.65;22.95;;;24.50;69.20;;;;;;5007923;28;20081;-61
2022/06/30 10:35:48;;;;;;;26.95;20.38;;;24.50;69.30;;;;;;5011122;28;20038;-61
2022/06/30 10:38:25;;;;;;;20.83;15.75;;;24.50;69.20;;;;;;5011547;28;20033;-61
2022/06/30 10:41:07;;;;;;;22.08;16.55;;;24.50;69.10;;;;;;5007094;28;20042;-62
2022/06/30 10:43:34;;;;;;;18.80;15.05;;;24.50;69.00;;;;;;5008715;28;20038;-61
2022/06/30 10:46:00;;;;;;;18.73;14.90;;;24.50;68.80;;;;;;5009988;28;20563;-61
2022/06/30 10:48:29;;;;;;;21.40;15.25;;;24.50;68.70;;;;;;5007703;28;20137;-61
2022/06/30 10:50:56;;;;;;;24.38;14.32;;;24.50;68.80;;;;;;5009085;28;20029;-61
2022/06/30 10:53:34;;;;;;;17.70;13.95;;;24.50;68.90;;;;;;5009176;28;20034;-62
2022/06/30 10:55:59;;;;;;;13.25;11.63;;;24.50;68.90;;;;;;4991186;28;20037;-62
2022/06/30 10:58:25;;;;;;;14.95;12.48;;;24.50;68.50;;;;;;5010931;28;20060;-61
2022/06/30 11:01:02;;;;;;;16.75;12.00;;;24.50;68.60;;;;;;5005846;28;20048;-61
2022/06/30 11:03:37;;;;;;;15.20;12.40;;;24.50;68.60;;;;;;5007270;28;20068;-62
2022/06/30 11:06:09;;;;;;;13.80;11.30;;;24.50;68.60;;;;;;5007301;28;20050;-62
2022/06/30 11:08:57;;;;;;;14.25;11.32;;;24.50;68.60;;;;;;5002268;28;20070;-61
2022/06/30 11:11:23;;;;;;;14.35;10.50;;;24.50;68.40;;;;;;5004586;28;20048;-61
2022/06/30 11:13:51;;;;;;;11.55;10.13;;;24.50;68.20;;;;;;5007762;28;20489;-62
2022/06/30 11:16:18;;;;;;;11.95;10.48;;;24.50;68.00;;;;;;5007310;28;20069;-61
2022/06/30 11:18:44;;;;;;;10.65;9.55;;;24.60;67.80;;;;;;5006959;28;20096;-60
2022/06/30 11:21:10;;;;;;;12.43;9.75;;;24.50;67.60;;;;;;5006134;28;20462;-62
2022/06/30 11:23:47;;;;;;;15.05;10.15;;;24.50;67.60;;;;;;5008439;28;20052;-62
2022/06/30 11:29:04;;;;;;;9.25;8.35;;;24.50;67.30;;;;;;5004312;28;20691;-62
2022/06/30 11:31:37;;;;;;;10.07;7.88;;;24.50;66.60;;;;;;4990436;28;20034;-62
2022/06/30 11:34:09;;;;;;;8.70;7.38;;;24.50;66.20;;;;;;5020129;28;20469;-62
2022/06/30 11:36:37;;;;;;;9.27;8.10;;;24.50;65.70;;;;;;5009108;28;20547;-61
2022/06/30 11:39:12;;;;;;;9.38;7.40;;;24.50;65.40;;;;;;5007504;28;20827;-61
2022/06/30 11:44:35;;;;;;;8.90;8.00;;;24.50;65.20;;;;;;5000234;28;20058;-61
2022/06/30 11:47:04;;;;;;;11.05;7.38;;;24.50;65.90;;;;;;4999452;28;20050;-61
2022/06/30 11:49:40;;;;;;;8.25;7.43;;;24.50;66.40;;;;;;4997082;28;20050;-61
2022/06/30 11:52:29;;;;;;;7.93;6.90;;;24.50;66.50;;;;;;5007672;28;20042;-61
2022/06/30 11:55:12;;;;;;;11.68;7.40;;;24.50;66.50;;;;;;5008637;28;20048;-61
2022/06/30 11:57:42;;;;;;;7.03;6.43;;;24.50;66.30;;;;;;5005685;28;20123;-62
2022/06/30 12:00:14;;;;;;;7.53;5.50;;;24.50;66.20;;;;;;5008722;28;20073;-61
2022/06/30 12:02:42;;;;;;;7.32;5.78;;;24.40;65.10;;;;;;5006562;28;20053;-61
2022/06/30 12:05:09;;;;;;;6.80;5.72;;;24.40;64.30;;;;;;5006723;28;20038;-61
2022/06/30 12:07:36;;;;;;;6.25;5.57;;;24.50;64.10;;;;;;5010286;28;20044;-62
2022/06/30 12:10:05;;;;;;;7.75;5.68;;;24.50;63.90;;;;;;5011875;28;20037;-61
2022/06/30 12:12:32;;;;;;;7.25;5.68;;;24.50;63.60;;;;;;5004969;28;20041;-61
2022/06/30 12:15:06;;;;;;;5.97;5.45;;;24.50;63.50;;;;;;5009021;28;20099;-61
2022/06/30 12:17:38;;;;;;;8.07;6.63;;;24.50;63.70;;;;;;5008740;28;20049;-61
2022/06/30 12:20:06;;;;;;;10.55;6.97;;;24.50;63.90;;;;;;5010147;28;20041;-61
2022/06/30 12:22:33;;;;;;;11.63;6.90;;;24.50;64.30;;;;;;5005802;28;20824;-62
2022/06/30 12:25:00;;;;;;;8.98;7.20;;;24.50;64.40;;;;;;5009935;28;20041;-61
2022/06/30 12:27:59;;;;;;;9.05;6.57;;;24.50;64.50;;;;;;5008502;28;20409;-61
2022/06/30 12:30:32;;;;;;;10.20;6.90;;;24.50;64.80;;;;;;5010052;28;20045;-63
2022/06/30 12:33:07;;;;;;;10.88;7.82;;;24.60;64.90;;;;;;5009682;28;20718;-60
2022/06/30 12:35:34;;;;;;;10.50;6.90;;;24.50;64.90;;;;;;5009344;28;20397;-61
2022/06/30 12:38:13;;;;;;;11.23;7.05;;;24.60;65.00;;;;;;5009823;28;20835;-61
2022/06/30 12:40:40;;;;;;;8.98;7.07;;;24.50;64.90;;;;;;5011256;28;20160;-61
2022/06/30 12:43:07;;;;;;;8.73;6.85;;;24.60;65.30;;;;;;5007854;28;20042;-61
2022/06/30 12:45:41;;;;;;;8.15;6.05;;;24.60;65.60;;;;;;5009523;28;20064;-61
2022/06/30 12:48:08;;;;;;;7.65;5.68;;;24.60;66.00;;;;;;5011767;28;20115;-61
2022/06/30 12:50:39;;;;;;;11.07;6.68;;;24.60;66.00;;;;;;5009243;28;20096;-61
2022/06/30 12:53:19;;;;;;;6.50;5.60;;;24.60;66.00;;;;;;5014133;28;20033;-61
2022/06/30 12:56:08;;;;;;;8.88;6.07;;;24.60;66.00;;;;;;5008252;28;20045;-61
2022/06/30 12:58:59;;;;;;;7.70;6.53;;;24.60;65.90;;;;;;5003727;28;20041;-61
2022/06/30 13:01:28;;;;;;;7.82;5.68;;;24.60;65.90;;;;;;5007016;28;20068;-62
2022/06/30 13:03:55;;;;;;;9.60;5.45;;;24.60;65.50;;;;;;5011055;28;20401;-62
2022/06/30 13:06:22;;;;;;;9.45;5.50;;;24.60;65.30;;;;;;5010205;28;20040;-62